Terminal Aerodrome Forecast
Issued by NWS Greer, SC

Home | Current Version | Previous Version | Text Only | Print | Product List | Glossary On
Versions: 1 2 3 4 5 6 7 8 9 10 11 12 13 14 15 16 17 18 19 20 21 22 23 24 25 26 27 28 29 30 31 32 33 34 35 36 37 38 39 40 41 42 43 44 45
000
FTUS42 KGSP 232327
TAFCLT
TAF
KCLT 232327Z 2400/2424 04012G20KT 6SM -SHRA BR SCT007 OVC015
      TEMPO 2400/2403 3SM TSRA BR OVC006CB
     FM240300 05013G21KT 2SM +SHRA BR OVC004
     FM241600 06014G22KT 3SM -SHRA BR OVC006 PROB30 2417/2421 TSRA
      BR OVC008CB=

USA.gov is the U.S. government's official web portal to all federal, state and local government web resources and services.